Cut Knife, Canada
Current Conditions -  °F | °C
As of 10:00 AM on Monday 26 Jan 2015 (Local Time) from CYQW Reporting Station
Broken Clouds Broken Clouds  
Wind Chill: 32°   Ceiling: 11000
Heat Index: 32°   Visibility: 9mi
Dew Point: 28°   Wind: 2mph
Humidity: 87%   Direction: NA
Pressure: 29.88"   Gusts: NA
Location:  52.74°N, 109.02°W
Report Text: CYQW 261600Z AUTO VRB02KT 9SM BKN110 M00/M02 A2988 RMK SLP142
Loading
Personal Weather Stations






























Interactive Weather Map New forecast layout! Learn more

10-Day Weather Forecast

Advertisements
Track Severe Weather on mobile